createdAt,value
2018-04-08T00:00:00.967Z,18.73
2018-04-08T00:02:29.451Z,14.13
2018-04-08T00:04:57.727Z,13.90
2018-04-08T00:07:28.322Z,13.83
2018-04-08T00:09:57.164Z,18.90
2018-04-08T00:12:27.016Z,17.13
2018-04-08T00:14:55.855Z,17.30
2018-04-08T00:17:24.941Z,16.07
2018-04-08T00:19:54.042Z,13.43
2018-04-08T00:22:22.582Z,12.20
2018-04-08T00:24:52.150Z,15.80
2018-04-08T00:27:21.138Z,15.83
2018-04-08T00:29:49.726Z,13.23
2018-04-08T00:32:18.100Z,17.77
2018-04-08T00:34:46.515Z,16.63
2018-04-08T00:37:15.660Z,18.83
2018-04-08T00:39:44.559Z,15.00
2018-04-08T00:42:13.085Z,16.77
2018-04-08T00:44:41.325Z,15.83
2018-04-08T00:47:09.810Z,13.60
2018-04-08T00:49:39.291Z,12.40
2018-04-08T00:52:07.693Z,12.10
2018-04-08T00:54:35.842Z,13.70
2018-04-08T00:57:04.021Z,13.60
2018-04-08T00:59:32.814Z,12.73
2018-04-08T01:02:01.284Z,16.20
2018-04-08T01:04:30.432Z,14.30
2018-04-08T01:06:58.959Z,12.57
2018-04-08T01:09:28.051Z,13.83
2018-04-08T01:11:56.493Z,16.20
2018-04-08T01:14:25.027Z,16.17
2018-04-08T01:16:53.424Z,16.33
2018-04-08T01:19:21.919Z,13.90
2018-04-08T01:21:50.074Z,11.83
2018-04-08T01:24:18.666Z,11.13
2018-04-08T01:26:46.916Z,12.27
2018-04-08T01:29:16.407Z,14.70
2018-04-08T01:31:44.591Z,12.77
2018-04-08T01:34:12.953Z,12.30
2018-04-08T01:36:42.286Z,13.00
2018-04-08T01:39:10.581Z,13.80
2018-04-08T01:41:39.026Z,14.70
2018-04-08T01:44:07.410Z,12.27
2018-04-08T01:46:35.749Z,11.73
2018-04-08T01:49:04.270Z,15.10
2018-04-08T01:51:32.443Z,13.40
2018-04-08T01:54:01.042Z,14.80
2018-04-08T01:56:29.498Z,12.23
2018-04-08T01:58:57.724Z,11.80
2018-04-08T02:01:25.844Z,11.00
2018-04-08T02:03:54.947Z,13.10
2018-04-08T02:06:23.165Z,13.27
2018-04-08T02:08:51.532Z,14.60
2018-04-08T02:11:19.707Z,14.00
2018-04-08T02:13:48.087Z,13.40
2018-04-08T02:16:17.539Z,16.70
2018-04-08T02:18:45.763Z,13.00
2018-04-08T02:21:14.950Z,13.50
2018-04-08T02:23:44.920Z,11.47
2018-04-08T02:26:13.354Z,11.40
2018-04-08T02:28:42.311Z,11.90
2018-04-08T02:31:10.718Z,12.17
2018-04-08T02:33:39.272Z,14.67
2018-04-08T02:36:07.784Z,11.37
2018-04-08T02:38:35.940Z,13.13
2018-04-08T02:41:04.216Z,11.50
2018-04-08T02:43:33.309Z,11.77
2018-04-08T02:46:02.580Z,11.37
2018-04-08T02:48:31.616Z,12.83
2018-04-08T02:51:00.611Z,11.60
2018-04-08T02:53:28.920Z,11.43
2018-04-08T02:55:57.566Z,11.97
2018-04-08T02:58:25.741Z,11.27
2018-04-08T03:00:53.908Z,12.07
2018-04-08T03:03:22.310Z,12.40
2018-04-08T03:05:50.803Z,12.00
2018-04-08T03:08:18.986Z,11.97
2018-04-08T03:10:48.261Z,13.93
2018-04-08T03:13:17.239Z,13.67
2018-04-08T03:15:46.341Z,11.33
2018-04-08T03:18:14.815Z,12.70
2018-04-08T03:20:44.168Z,13.93
2018-04-08T03:23:12.411Z,11.70
2018-04-08T03:25:40.785Z,11.33
2018-04-08T03:28:09.141Z,13.50
2018-04-08T03:30:37.852Z,10.90
2018-04-08T03:33:06.823Z,11.53
2018-04-08T03:35:36.045Z,11.87
2018-04-08T03:38:05.113Z,11.90
2018-04-08T03:40:33.718Z,12.00
2018-04-08T03:43:01.868Z,13.93
2018-04-08T03:45:30.149Z,11.47
2018-04-08T03:47:58.453Z,12.70
2018-04-08T03:50:27.993Z,11.23
2018-04-08T03:52:57.047Z,11.50
2018-04-08T03:55:25.460Z,12.67
2018-04-08T03:57:54.332Z,11.57
2018-04-08T04:00:22.695Z,12.53
2018-04-08T04:02:51.381Z,11.30
2018-04-08T04:05:20.066Z,11.23
2018-04-08T04:07:49.151Z,11.60
2018-04-08T04:10:17.374Z,12.63
2018-04-08T04:12:45.607Z,12.47
2018-04-08T04:15:14.703Z,11.50
2018-04-08T04:17:43.356Z,12.33
2018-04-08T04:20:11.968Z,13.33
2018-04-08T04:22:40.264Z,10.97
2018-04-08T04:25:08.312Z,12.30
2018-04-08T04:27:36.581Z,11.27
2018-04-08T04:30:05.475Z,10.73
2018-04-08T04:32:33.756Z,11.90
2018-04-08T04:35:02.655Z,14.30
2018-04-08T04:37:31.347Z,18.77
2018-04-08T04:39:59.929Z,15.83
2018-04-08T04:42:29.014Z,13.17
2018-04-08T04:44:57.924Z,15.50
2018-04-08T04:47:26.535Z,14.83
2018-04-08T04:49:54.781Z,15.47
2018-04-08T04:52:23.029Z,19.03
2018-04-08T04:54:51.417Z,14.20
2018-04-08T04:57:19.588Z,15.37
2018-04-08T04:59:47.774Z,15.80
2018-04-08T05:02:16.132Z,14.43
2018-04-08T05:04:44.314Z,14.77
2018-04-08T05:07:13.221Z,14.90
2018-04-08T05:09:41.387Z,14.97
2018-04-08T05:12:09.975Z,16.53
2018-04-08T05:14:38.387Z,16.87
2018-04-08T05:17:06.747Z,14.70
2018-04-08T05:19:34.795Z,14.83
2018-04-08T05:22:03.896Z,14.97
2018-04-08T05:24:32.164Z,16.03
2018-04-08T05:27:01.287Z,15.30
2018-04-08T05:29:30.177Z,14.57
2018-04-08T05:31:58.760Z,16.60
2018-04-08T05:34:27.845Z,14.30
2018-04-08T05:36:56.469Z,15.30
2018-04-08T05:39:24.599Z,14.53
2018-04-08T05:41:53.626Z,14.47
2018-04-08T05:44:22.101Z,13.87
2018-04-08T05:46:50.473Z,14.23
2018-04-08T05:49:19.570Z,13.23
2018-04-08T05:51:47.811Z,13.87
2018-04-08T05:54:16.129Z,13.20
2018-04-08T05:56:45.814Z,14.60
2018-04-08T05:59:13.976Z,14.40
2018-04-08T06:01:43.070Z,15.43
2018-04-08T06:04:11.362Z,15.07
2018-04-08T06:06:39.866Z,15.63
2018-04-08T06:09:08.347Z,14.17
2018-04-08T06:11:37.237Z,15.20
2018-04-08T06:14:06.034Z,13.13
2018-04-08T06:16:34.287Z,12.90
2018-04-08T06:19:02.586Z,15.60
2018-04-08T06:21:30.843Z,13.50
2018-04-08T06:23:59.827Z,14.50
2018-04-08T06:26:29.074Z,14.33
2018-04-08T06:28:57.183Z,13.23
2018-04-08T06:31:25.594Z,13.40
2018-04-08T06:33:53.853Z,13.90
2018-04-08T06:36:23.250Z,15.70
2018-04-08T06:38:51.556Z,14.00
2018-04-08T06:41:20.928Z,13.60
2018-04-08T06:43:49.120Z,14.63
2018-04-08T06:46:17.574Z,13.60
2018-04-08T06:48:46.351Z,14.33
2018-04-08T06:51:15.447Z,12.73
2018-04-08T06:53:43.971Z,12.87
2018-04-08T06:56:12.324Z,13.83
2018-04-08T06:58:41.106Z,14.53
2018-04-08T07:01:09.576Z,12.97
2018-04-08T07:03:38.081Z,14.03
2018-04-08T07:06:06.684Z,13.30
2018-04-08T07:08:35.181Z,14.00
2018-04-08T07:11:03.427Z,12.77
2018-04-08T07:13:31.797Z,16.83
2018-04-08T07:16:01.017Z,13.83
2018-04-08T07:18:29.204Z,14.30
2018-04-08T07:20:57.805Z,13.00
2018-04-08T07:23:26.546Z,12.63
2018-04-08T07:25:54.766Z,12.43
2018-04-08T07:28:23.126Z,13.67
2018-04-08T07:30:51.458Z,12.97
2018-04-08T07:33:20.916Z,12.57
2018-04-08T07:35:49.130Z,13.83
2018-04-08T07:38:18.098Z,13.03
2018-04-08T07:40:47.332Z,11.57
2018-04-08T07:43:15.954Z,12.47
2018-04-08T07:45:43.902Z,12.50
2018-04-08T07:48:13.080Z,11.80
2018-04-08T07:50:41.450Z,12.90
2018-04-08T07:53:11.380Z,12.67
2018-04-08T07:55:39.751Z,12.80
2018-04-08T07:58:08.588Z,12.90
2018-04-08T08:00:38.455Z,12.43
2018-04-08T08:03:06.575Z,12.10
2018-04-08T08:05:34.777Z,13.17
2018-04-08T08:08:02.987Z,11.90
2018-04-08T08:10:31.466Z,12.20
2018-04-08T08:13:00.706Z,12.40
2018-04-08T08:15:29.135Z,11.23
2018-04-08T08:17:57.318Z,11.13
2018-04-08T08:20:25.813Z,13.47
2018-04-08T08:22:54.468Z,12.30
2018-04-08T08:25:23.426Z,11.57
2018-04-08T08:27:51.659Z,11.90
2018-04-08T08:30:20.188Z,10.63
2018-04-08T08:32:48.534Z,12.43
2018-04-08T08:35:16.929Z,11.13
2018-04-08T08:37:44.986Z,14.17
2018-04-08T08:40:13.277Z,11.83
2018-04-08T08:42:41.425Z,11.57
2018-04-08T08:45:10.468Z,11.27
2018-04-08T08:47:39.046Z,11.70
2018-04-08T08:50:07.250Z,11.20
2018-04-08T08:52:36.062Z,11.93
2018-04-08T08:55:04.649Z,10.93
2018-04-08T08:57:33.014Z,11.90
2018-04-08T09:00:01.398Z,11.20
2018-04-08T09:02:30.377Z,11.37
2018-04-08T09:04:58.444Z,11.07
2018-04-08T09:07:27.541Z,11.13
2018-04-08T09:09:55.839Z,11.63
2018-04-08T09:12:23.887Z,11.50
2018-04-08T09:14:52.357Z,11.10
2018-04-08T09:17:21.381Z,10.33
2018-04-08T09:19:49.643Z,10.57
2018-04-08T09:22:19.386Z,10.77
2018-04-08T09:24:47.534Z,10.40
2018-04-08T09:27:16.660Z,10.57
2018-04-08T09:29:44.905Z,10.80
2018-04-08T09:32:13.085Z,11.40
2018-04-08T09:34:41.362Z,10.30
2018-04-08T09:37:09.720Z,11.50
2018-04-08T09:39:39.362Z,10.20
2018-04-08T09:42:07.729Z,10.90
2018-04-08T09:44:36.699Z,11.50
2018-04-08T09:47:05.695Z,10.50
2018-04-08T09:49:34.083Z,10.20
2018-04-08T09:52:02.246Z,10.23
2018-04-08T09:54:31.236Z,10.73
2018-04-08T09:56:59.449Z,9.10
2018-04-08T09:59:28.412Z,8.97
2018-04-08T10:01:56.890Z,10.93
2018-04-08T10:04:25.884Z,10.97
2018-04-08T10:06:54.891Z,9.87
2018-04-08T10:09:23.381Z,9.40
2018-04-08T10:11:52.268Z,10.50
2018-04-08T10:14:20.746Z,10.27
2018-04-08T10:16:49.733Z,9.17
2018-04-08T10:19:17.901Z,10.57
2018-04-08T10:21:46.589Z,9.77
2018-04-08T10:24:14.584Z,9.87
2018-04-08T10:26:42.837Z,9.30
2018-04-08T10:29:10.928Z,12.17
2018-04-08T10:31:39.479Z,12.33
2018-04-08T10:34:07.780Z,9.17
2018-04-08T10:36:36.266Z,10.43
2018-04-08T10:39:04.521Z,10.07
2018-04-08T10:41:32.892Z,9.83
2018-04-08T10:44:01.210Z,9.40
2018-04-08T10:46:29.551Z,9.13
2018-04-08T10:48:58.335Z,10.10
2018-04-08T10:51:26.654Z,10.20
2018-04-08T10:53:55.034Z,9.60
2018-04-08T10:56:23.801Z,10.43
2018-04-08T10:58:52.054Z,10.10
2018-04-08T11:01:20.145Z,9.50
2018-04-08T11:03:48.645Z,9.83
2018-04-08T11:06:17.935Z,8.50
2018-04-08T11:08:47.177Z,8.37
2018-04-08T11:11:15.402Z,9.33
2018-04-08T11:13:43.602Z,8.07
2018-04-08T11:16:11.987Z,8.40
2018-04-08T11:18:40.637Z,9.07
2018-04-08T11:21:08.944Z,8.00
2018-04-08T11:23:37.441Z,8.80
2018-04-08T11:26:06.095Z,9.97
2018-04-08T11:28:35.171Z,11.50
2018-04-08T11:31:03.568Z,11.60
2018-04-08T11:33:32.743Z,12.30
2018-04-08T11:36:02.161Z,12.87
2018-04-08T11:38:30.431Z,12.97
2018-04-08T11:40:58.633Z,13.77
2018-04-08T11:43:27.084Z,13.03
2018-04-08T11:45:55.284Z,12.50
2018-04-08T11:48:23.696Z,14.17
2018-04-08T11:50:51.995Z,12.63
2018-04-08T11:53:20.185Z,12.37
2018-04-08T11:55:48.458Z,12.53
2018-04-08T11:58:17.452Z,13.40
2018-04-08T12:00:46.155Z,13.50
2018-04-08T12:03:14.438Z,14.43
2018-04-08T12:05:42.901Z,15.27
2018-04-08T12:08:11.977Z,13.63
2018-04-08T12:10:40.912Z,13.20
2018-04-08T12:13:09.971Z,13.30
2018-04-08T12:15:38.871Z,14.40
2018-04-08T12:18:07.366Z,13.37
2018-04-08T12:20:35.518Z,12.77
2018-04-08T12:23:03.720Z,12.23
2018-04-08T12:25:31.875Z,12.73
2018-04-08T12:28:00.167Z,12.27
2018-04-08T12:30:29.167Z,14.47
2018-04-08T12:32:57.309Z,11.97
2018-04-08T12:35:25.494Z,12.00
2018-04-08T12:37:53.464Z,11.70
2018-04-08T12:40:21.315Z,13.37
2018-04-08T12:42:49.280Z,12.40
2018-04-08T12:45:17.467Z,14.13
2018-04-08T12:47:45.875Z,12.40
2018-04-08T12:50:13.945Z,13.37
2018-04-08T12:52:42.338Z,14.90
2018-04-08T12:55:10.671Z,14.97
2018-04-08T12:57:39.003Z,13.60
2018-04-08T13:00:08.052Z,18.23
2018-04-08T13:02:36.225Z,19.33
2018-04-08T13:05:04.965Z,26.57
2018-04-08T13:07:33.833Z,19.43
2018-04-08T13:10:02.906Z,18.30
2018-04-08T13:12:31.616Z,26.17
2018-04-08T13:15:02.309Z,16.40
2018-04-08T13:17:30.263Z,17.50
2018-04-08T13:19:59.098Z,15.70
2018-04-08T13:22:26.925Z,14.50
2018-04-08T13:24:55.412Z,24.27
2018-04-08T13:27:23.040Z,13.30
2018-04-08T13:29:50.658Z,14.50
2018-04-08T13:32:18.235Z,17.57
2018-04-08T13:34:45.805Z,19.53
2018-04-08T13:37:13.384Z,21.13
2018-04-08T13:39:40.885Z,12.33
2018-04-08T13:42:08.835Z,13.97
2018-04-08T13:44:37.621Z,12.30
2018-04-08T13:47:06.409Z,12.67
2018-04-08T13:49:35.110Z,13.90
2018-04-08T13:52:03.782Z,11.63
2018-04-08T13:54:32.473Z,12.83
2018-04-08T13:57:01.976Z,16.63
2018-04-08T13:59:30.046Z,13.93
2018-04-08T14:01:58.944Z,13.17
2018-04-08T14:04:26.901Z,20.23
2018-04-08T14:06:55.600Z,11.80
2018-04-08T14:09:23.452Z,13.73
2018-04-08T14:11:52.664Z,22.63
2018-04-08T14:14:21.058Z,12.20
2018-04-08T14:16:50.155Z,19.43
2018-04-08T14:19:18.737Z,12.00
2018-04-08T14:21:47.138Z,12.63
2018-04-08T14:24:15.471Z,13.03
2018-04-08T14:26:43.747Z,16.20
2018-04-08T14:29:12.153Z,13.67
2018-04-08T14:31:40.927Z,16.47
2018-04-08T14:34:09.438Z,9.50
2018-04-08T14:36:37.875Z,9.57
2018-04-08T14:39:06.056Z,12.60
2018-04-08T14:41:34.541Z,10.47
2018-04-08T14:44:02.527Z,10.00
2018-04-08T14:46:30.777Z,10.20
2018-04-08T14:48:59.060Z,14.70
2018-04-08T14:51:27.440Z,15.57
2018-04-08T14:53:55.623Z,11.17
2018-04-08T14:56:23.997Z,14.60
2018-04-08T14:58:52.876Z,11.37
2018-04-08T15:01:20.861Z,13.73
2018-04-08T15:03:49.525Z,10.83
2018-04-08T15:06:18.435Z,11.93
2018-04-08T15:08:47.236Z,12.60
2018-04-08T15:11:15.494Z,10.97
2018-04-08T15:13:43.879Z,10.23
2018-04-08T15:16:12.265Z,11.97
2018-04-08T15:18:40.325Z,10.53
2018-04-08T15:21:09.179Z,13.87
2018-04-08T15:23:38.201Z,10.10
2018-04-08T15:26:06.703Z,9.37
2018-04-08T15:28:35.474Z,10.83
2018-04-08T15:31:03.811Z,11.10
2018-04-08T15:33:32.692Z,9.90
2018-04-08T15:36:01.666Z,10.77
2018-04-08T15:38:30.217Z,10.40
2018-04-08T15:40:58.502Z,11.17
2018-04-08T15:43:26.785Z,12.23
2018-04-08T15:45:54.858Z,11.33
2018-04-08T15:48:23.248Z,10.97
2018-04-08T15:50:51.512Z,10.47
2018-04-08T15:53:19.904Z,11.23
2018-04-08T15:55:48.164Z,10.80
2018-04-08T15:58:16.542Z,9.43
2018-04-08T16:00:45.011Z,12.03
2018-04-08T16:03:13.263Z,11.43
2018-04-08T16:05:42.242Z,11.13
2018-04-08T16:08:10.875Z,10.77
2018-04-08T16:10:39.083Z,9.87
2018-04-08T16:13:08.258Z,10.20
2018-04-08T16:15:36.712Z,10.40
2018-04-08T16:18:05.173Z,11.20
2018-04-08T16:20:33.316Z,10.50
2018-04-08T16:23:01.664Z,9.53
2018-04-08T16:25:30.984Z,11.73
2018-04-08T16:27:59.323Z,10.30
2018-04-08T16:30:28.469Z,9.80
2018-04-08T16:32:57.545Z,10.77
2018-04-08T16:35:27.496Z,11.00
2018-04-08T16:37:56.863Z,11.40
2018-04-08T16:40:27.307Z,10.90
2018-04-08T16:42:55.328Z,10.80
2018-04-08T16:45:23.390Z,11.13
2018-04-08T16:47:51.795Z,11.63
2018-04-08T16:50:20.098Z,12.10
2018-04-08T16:52:48.972Z,10.10
2018-04-08T16:55:18.572Z,9.40
2018-04-08T16:57:47.058Z,10.87
2018-04-08T17:00:15.062Z,10.43
2018-04-08T17:02:44.459Z,9.47
2018-04-08T17:05:13.960Z,11.13
2018-04-08T17:07:42.810Z,11.10
2018-04-08T17:10:10.996Z,9.27
2018-04-08T17:12:39.385Z,10.27
2018-04-08T17:15:07.772Z,10.13
2018-04-08T17:17:36.005Z,9.97
2018-04-08T17:20:04.541Z,10.33
2018-04-08T17:22:33.646Z,10.63
2018-04-08T17:25:01.939Z,10.00
2018-04-08T17:27:30.415Z,10.87
2018-04-08T17:29:59.012Z,9.73
2018-04-08T17:32:27.210Z,10.43
2018-04-08T17:34:56.248Z,11.40
2018-04-08T17:37:24.519Z,9.27
2018-04-08T17:39:52.970Z,10.37
2018-04-08T17:42:21.513Z,10.67
2018-04-08T17:44:51.216Z,10.20
2018-04-08T17:47:20.084Z,9.53
2018-04-08T17:49:48.723Z,10.20
2018-04-08T17:52:17.190Z,10.90
2018-04-08T17:54:45.586Z,10.07
2018-04-08T17:57:13.930Z,9.80
2018-04-08T17:59:42.231Z,10.77
2018-04-08T18:02:13.077Z,10.73
2018-04-08T18:04:42.283Z,10.50
2018-04-08T18:07:10.577Z,9.70
2018-04-08T18:09:39.441Z,9.43
2018-04-08T18:12:07.827Z,11.20
2018-04-08T18:14:37.576Z,12.23
2018-04-08T18:17:06.648Z,10.23
2018-04-08T18:19:36.228Z,10.83
2018-04-08T18:22:05.030Z,11.70
2018-04-08T18:24:34.139Z,11.20
2018-04-08T18:27:04.063Z,11.37
2018-04-08T18:29:33.217Z,9.83
2018-04-08T18:32:01.849Z,10.47
2018-04-08T18:34:30.906Z,11.20
2018-04-08T18:37:00.270Z,12.50
2018-04-08T18:39:30.030Z,10.67
2018-04-08T18:42:01.453Z,9.17
2018-04-08T18:44:30.260Z,9.60
2018-04-08T18:46:58.885Z,10.33
2018-04-08T18:49:27.550Z,10.60
2018-04-08T18:51:56.984Z,10.80
2018-04-08T18:54:26.057Z,9.57
2018-04-08T18:56:55.146Z,9.73
2018-04-08T18:59:24.614Z,10.93
2018-04-08T19:01:53.715Z,10.33
2018-04-08T19:04:22.390Z,10.30
2018-04-08T19:06:51.721Z,8.97
2018-04-08T19:09:20.213Z,9.67
2018-04-08T19:11:48.698Z,10.00
2018-04-08T19:14:17.436Z,8.70
2018-04-08T19:16:45.800Z,9.00
2018-04-08T19:19:16.637Z,10.30
2018-04-08T19:21:45.629Z,10.10
2018-04-08T19:24:14.722Z,9.00
2018-04-08T19:26:43.894Z,9.13
2018-04-08T19:29:12.378Z,10.13
2018-04-08T19:31:41.196Z,9.70
2018-04-08T19:34:09.365Z,10.93
2018-04-08T19:36:37.814Z,9.63
2018-04-08T19:39:06.665Z,10.50
2018-04-08T19:41:35.505Z,10.03
2018-04-08T19:44:03.945Z,7.57
2018-04-08T19:46:32.870Z,10.33
2018-04-08T19:49:01.504Z,8.60
2018-04-08T19:51:30.411Z,9.60
2018-04-08T19:53:59.646Z,8.90
2018-04-08T19:56:27.965Z,8.80
2018-04-08T19:58:56.582Z,9.57
2018-04-08T20:01:24.953Z,8.73
2018-04-08T20:03:53.466Z,8.23
2018-04-08T20:06:22.306Z,9.20
2018-04-08T20:08:50.862Z,8.63
2018-04-08T20:11:19.383Z,9.50
2018-04-08T20:13:48.509Z,8.70
2018-04-08T20:16:17.421Z,8.73
2018-04-08T20:18:45.669Z,8.50
2018-04-08T20:21:13.923Z,8.73
2018-04-08T20:23:43.048Z,7.60
2018-04-08T20:26:12.059Z,8.17
2018-04-08T20:28:41.242Z,7.70
2018-04-08T20:31:10.217Z,7.73
2018-04-08T20:33:39.201Z,8.23
2018-04-08T20:36:08.305Z,7.90
2018-04-08T20:38:36.200Z,7.20
2018-04-08T20:41:06.570Z,8.93
2018-04-08T20:43:34.967Z,6.80
2018-04-08T20:46:03.644Z,7.43
2018-04-08T20:48:32.196Z,6.93
2018-04-08T20:51:02.702Z,8.97
2018-04-08T20:53:30.860Z,8.33
2018-04-08T20:55:59.253Z,10.67
2018-04-08T20:58:27.530Z,7.43
2018-04-08T21:00:56.281Z,6.10
2018-04-08T21:03:24.401Z,7.60
2018-04-08T21:05:53.047Z,7.20
2018-04-08T21:08:21.701Z,7.00
2018-04-08T21:10:50.091Z,8.00
2018-04-08T21:13:19.648Z,6.70
2018-04-08T21:15:49.660Z,8.10
2018-04-08T21:18:19.279Z,8.17
2018-04-08T21:20:48.260Z,7.60
2018-04-08T21:23:16.633Z,7.50
2018-04-08T21:25:46.121Z,5.33
2018-04-08T21:28:14.668Z,7.07
2018-04-08T21:30:43.303Z,9.80
2018-04-08T21:33:12.700Z,10.70
2018-04-08T21:35:41.177Z,9.00
2018-04-08T21:38:12.321Z,11.47
2018-04-08T21:40:41.140Z,7.13
2018-04-08T21:43:10.735Z,9.60
2018-04-08T21:45:38.888Z,8.90
2018-04-08T21:48:13.823Z,9.03
2018-04-08T21:50:43.830Z,7.27
2018-04-08T21:53:12.211Z,8.10
2018-04-08T21:55:42.830Z,8.07
2018-04-08T21:58:13.882Z,8.17
2018-04-08T22:00:42.498Z,9.70
2018-04-08T22:03:11.078Z,9.27
2018-04-08T22:05:39.333Z,10.70
2018-04-08T22:08:08.831Z,10.30
2018-04-08T22:10:37.545Z,8.20
2018-04-08T22:13:05.598Z,12.20
2018-04-08T22:15:34.803Z,8.97
2018-04-08T22:18:04.303Z,6.57
2018-04-08T22:20:32.794Z,11.83
2018-04-08T22:23:02.489Z,10.23
2018-04-08T22:25:30.988Z,8.83
2018-04-08T22:27:59.833Z,7.50
2018-04-08T22:30:28.454Z,6.27
2018-04-08T22:32:58.277Z,9.13
2018-04-08T22:35:28.501Z,9.03
2018-04-08T22:37:59.219Z,7.40
2018-04-08T22:40:28.504Z,11.03
2018-04-08T22:42:57.508Z,8.90
2018-04-08T22:45:26.776Z,9.33
2018-04-08T22:47:55.682Z,11.33
2018-04-08T22:50:26.504Z,7.57
2018-04-08T22:52:56.971Z,6.57
2018-04-08T22:55:25.733Z,7.70
2018-04-08T22:57:54.212Z,5.20
2018-04-08T23:00:23.316Z,7.57
2018-04-08T23:02:53.263Z,6.50
2018-04-08T23:05:21.637Z,7.90
2018-04-08T23:07:51.209Z,6.43
2018-04-08T23:10:19.336Z,5.10
2018-04-08T23:12:47.688Z,6.63
2018-04-08T23:15:16.876Z,10.03
2018-04-08T23:17:45.565Z,6.20
2018-04-08T23:20:14.084Z,8.40
2018-04-08T23:22:42.718Z,9.57
2018-04-08T23:25:11.828Z,8.60
2018-04-08T23:27:40.731Z,9.60
2018-04-08T23:30:08.900Z,7.53
2018-04-08T23:32:37.793Z,7.57
2018-04-08T23:35:08.475Z,7.53
2018-04-08T23:37:37.069Z,8.93
2018-04-08T23:40:05.359Z,8.43
2018-04-08T23:42:35.144Z,8.13
2018-04-08T23:45:04.141Z,11.23
2018-04-08T23:47:32.454Z,5.30
2018-04-08T23:50:00.513Z,5.63
2018-04-08T23:52:28.827Z,9.30
2018-04-08T23:54:57.788Z,11.27
2018-04-08T23:57:26.314Z,7.53
2018-04-08T23:59:55.147Z,6.17
